sensor_id;sensor_type;location;lat;lon;timestamp;P1;durP1;ratioP1;P2;durP2;ratioP2
7693;SDS011;3889;48.162;11.510;2023-03-01T00:01:44;24.43;;;22.00;;
7693;SDS011;3889;48.162;11.510;2023-03-01T00:04:12;25.35;;;22.95;;
7693;SDS011;3889;48.162;11.510;2023-03-01T00:06:40;24.48;;;22.17;;
7693;SDS011;3889;48.162;11.510;2023-03-01T00:09:12;25.08;;;22.67;;
7693;SDS011;3889;48.162;11.510;2023-03-01T00:11:40;24.70;;;22.40;;
7693;SDS011;3889;48.162;11.510;2023-03-01T00:14:08;24.38;;;22.08;;
7693;SDS011;3889;48.162;11.510;2023-03-01T00:16:38;25.52;;;23.15;;
7693;SDS011;3889;48.162;11.510;2023-03-01T00:19:07;23.90;;;21.73;;
7693;SDS011;3889;48.162;11.510;2023-03-01T00:21:39;25.10;;;22.83;;
7693;SDS011;3889;48.162;11.510;2023-03-01T00:24:07;25.17;;;22.80;;
7693;SDS011;3889;48.162;11.510;2023-03-01T00:26:36;24.77;;;22.50;;
7693;SDS011;3889;48.162;11.510;2023-03-01T00:29:04;24.23;;;22.03;;
7693;SDS011;3889;48.162;11.510;2023-03-01T00:31:32;24.90;;;22.52;;
7693;SDS011;3889;48.162;11.510;2023-03-01T00:34:02;25.20;;;22.80;;
7693;SDS011;3889;48.162;11.510;2023-03-01T00:36:32;25.58;;;23.08;;
7693;SDS011;3889;48.162;11.510;2023-03-01T00:39:02;24.88;;;22.55;;
7693;SDS011;3889;48.162;11.510;2023-03-01T00:41:30;25.23;;;22.83;;
7693;SDS011;3889;48.162;11.510;2023-03-01T00:44:00;25.52;;;23.13;;
7693;SDS011;3889;48.162;11.510;2023-03-01T00:46:28;24.63;;;22.42;;
7693;SDS011;3889;48.162;11.510;2023-03-01T00:48:57;25.63;;;23.23;;
7693;SDS011;3889;48.162;11.510;2023-03-01T00:51:29;25.05;;;22.75;;
7693;SDS011;3889;48.162;11.510;2023-03-01T00:53:58;24.92;;;22.63;;
7693;SDS011;3889;48.162;11.510;2023-03-01T00:56:29;24.33;;;22.20;;
7693;SDS011;3889;48.162;11.510;2023-03-01T00:58:57;25.27;;;22.98;;
7693;SDS011;3889;48.162;11.510;2023-03-01T01:01:26;25.00;;;22.70;;
7693;SDS011;3889;48.162;11.510;2023-03-01T01:03:57;24.75;;;22.45;;
7693;SDS011;3889;48.162;11.510;2023-03-01T01:06:26;25.07;;;22.73;;
7693;SDS011;3889;48.162;11.510;2023-03-01T01:08:58;24.70;;;22.40;;
7693;SDS011;3889;48.162;11.510;2023-03-01T01:11:26;25.33;;;22.98;;
7693;SDS011;3889;48.162;11.510;2023-03-01T01:13:56;24.23;;;22.00;;
7693;SDS011;3889;48.162;11.510;2023-03-01T01:16:25;23.50;;;21.30;;
7693;SDS011;3889;48.162;11.510;2023-03-01T01:18:55;24.80;;;22.60;;
7693;SDS011;3889;48.162;11.510;2023-03-01T01:21:23;24.23;;;22.02;;
7693;SDS011;3889;48.162;11.510;2023-03-01T01:23:53;24.40;;;22.25;;
7693;SDS011;3889;48.162;11.510;2023-03-01T01:26:23;24.90;;;22.60;;
7693;SDS011;3889;48.162;11.510;2023-03-01T01:28:52;25.63;;;23.20;;
7693;SDS011;3889;48.162;11.510;2023-03-01T01:31:21;24.45;;;22.15;;
7693;SDS011;3889;48.162;11.510;2023-03-01T01:33:50;25.23;;;22.92;;
7693;SDS011;3889;48.162;11.510;2023-03-01T01:36:18;25.48;;;23.17;;
7693;SDS011;3889;48.162;11.510;2023-03-01T01:38:46;25.20;;;22.80;;
7693;SDS011;3889;48.162;11.510;2023-03-01T01:41:14;24.98;;;22.77;;
7693;SDS011;3889;48.162;11.510;2023-03-01T01:43:44;25.15;;;22.85;;
7693;SDS011;3889;48.162;11.510;2023-03-01T01:46:15;25.48;;;23.08;;
7693;SDS011;3889;48.162;11.510;2023-03-01T01:48:50;25.60;;;23.20;;
7693;SDS011;3889;48.162;11.510;2023-03-01T01:51:24;24.88;;;22.65;;
7693;SDS011;3889;48.162;11.510;2023-03-01T01:54:05;24.02;;;21.90;;
7693;SDS011;3889;48.162;11.510;2023-03-01T01:56:38;24.45;;;22.25;;
7693;SDS011;3889;48.162;11.510;2023-03-01T01:59:09;25.67;;;23.08;;
7693;SDS011;3889;48.162;11.510;2023-03-01T02:01:37;24.40;;;22.20;;
7693;SDS011;3889;48.162;11.510;2023-03-01T02:04:04;25.17;;;22.85;;
7693;SDS011;3889;48.162;11.510;2023-03-01T02:06:33;24.13;;;21.98;;
7693;SDS011;3889;48.162;11.510;2023-03-01T02:09:06;25.00;;;22.70;;
7693;SDS011;3889;48.162;11.510;2023-03-01T02:11:38;24.10;;;21.90;;
7693;SDS011;3889;48.162;11.510;2023-03-01T02:14:06;25.17;;;22.73;;
7693;SDS011;3889;48.162;11.510;2023-03-01T02:16:36;24.70;;;22.38;;
7693;SDS011;3889;48.162;11.510;2023-03-01T02:19:03;24.77;;;22.50;;
7693;SDS011;3889;48.162;11.510;2023-03-01T02:21:36;24.27;;;22.02;;
7693;SDS011;3889;48.162;11.510;2023-03-01T02:24:10;25.02;;;22.52;;
7693;SDS011;3889;48.162;11.510;2023-03-01T02:26:48;24.17;;;21.87;;
7693;SDS011;3889;48.162;11.510;2023-03-01T02:29:20;24.60;;;22.40;;
7693;SDS011;3889;48.162;11.510;2023-03-01T02:31:48;24.83;;;22.48;;
7693;SDS011;3889;48.162;11.510;2023-03-01T02:34:19;25.38;;;23.08;;
7693;SDS011;3889;48.162;11.510;2023-03-01T02:36:52;24.70;;;22.50;;
7693;SDS011;3889;48.162;11.510;2023-03-01T02:39:25;25.42;;;23.13;;
7693;SDS011;3889;48.162;11.510;2023-03-01T02:41:56;24.67;;;22.45;;
7693;SDS011;3889;48.162;11.510;2023-03-01T02:44:26;25.15;;;22.95;;
7693;SDS011;3889;48.162;11.510;2023-03-01T02:46:55;25.30;;;23.05;;
7693;SDS011;3889;48.162;11.510;2023-03-01T02:49:25;24.20;;;21.95;;
7693;SDS011;3889;48.162;11.510;2023-03-01T02:52:00;25.33;;;23.02;;
7693;SDS011;3889;48.162;11.510;2023-03-01T02:54:39;25.10;;;22.70;;
7693;SDS011;3889;48.162;11.510;2023-03-01T02:57:11;25.08;;;22.67;;
7693;SDS011;3889;48.162;11.510;2023-03-01T02:59:40;24.85;;;22.58;;
7693;SDS011;3889;48.162;11.510;2023-03-01T03:02:18;24.98;;;22.67;;
7693;SDS011;3889;48.162;11.510;2023-03-01T03:05:05;25.15;;;22.85;;
7693;SDS011;3889;48.162;11.510;2023-03-01T03:07:37;25.50;;;23.10;;
7693;SDS011;3889;48.162;11.510;2023-03-01T03:10:07;24.35;;;22.17;;
7693;SDS011;3889;48.162;11.510;2023-03-01T03:12:37;25.03;;;22.83;;
7693;SDS011;3889;48.162;11.510;2023-03-01T03:15:07;24.17;;;22.05;;
7693;SDS011;3889;48.162;11.510;2023-03-01T03:17:39;24.58;;;22.17;;
7693;SDS011;3889;48.162;11.510;2023-03-01T03:20:12;25.52;;;23.15;;
7693;SDS011;3889;48.162;11.510;2023-03-01T03:22:45;25.17;;;22.77;;
7693;SDS011;3889;48.162;11.510;2023-03-01T03:25:14;25.40;;;22.95;;
7693;SDS011;3889;48.162;11.510;2023-03-01T03:27:42;24.48;;;22.17;;
7693;SDS011;3889;48.162;11.510;2023-03-01T03:30:13;25.75;;;23.35;;
7693;SDS011;3889;48.162;11.510;2023-03-01T03:32:43;25.27;;;22.90;;
7693;SDS011;3889;48.162;11.510;2023-03-01T03:35:18;24.40;;;22.15;;
7693;SDS011;3889;48.162;11.510;2023-03-01T03:37:47;25.10;;;22.73;;
7693;SDS011;3889;48.162;11.510;2023-03-01T03:40:33;25.45;;;23.05;;
7693;SDS011;3889;48.162;11.510;2023-03-01T03:43:02;25.85;;;23.45;;
7693;SDS011;3889;48.162;11.510;2023-03-01T03:45:33;25.55;;;23.15;;
7693;SDS011;3889;48.162;11.510;2023-03-01T03:48:02;25.67;;;23.40;;
7693;SDS011;3889;48.162;11.510;2023-03-01T03:50:32;25.42;;;23.13;;
7693;SDS011;3889;48.162;11.510;2023-03-01T03:53:00;24.38;;;22.17;;
7693;SDS011;3889;48.162;11.510;2023-03-01T03:55:30;26.00;;;23.70;;
7693;SDS011;3889;48.162;11.510;2023-03-01T03:58:00;24.88;;;22.67;;
7693;SDS011;3889;48.162;11.510;2023-03-01T04:00:34;26.20;;;23.70;;
7693;SDS011;3889;48.162;11.510;2023-03-01T04:03:04;25.08;;;22.67;;
7693;SDS011;3889;48.162;11.510;2023-03-01T04:05:32;26.20;;;23.90;;
7693;SDS011;3889;48.162;11.510;2023-03-01T04:08:00;25.60;;;23.33;;
7693;SDS011;3889;48.162;11.510;2023-03-01T04:10:29;26.40;;;23.95;;
7693;SDS011;3889;48.162;11.510;2023-03-01T04:12:58;25.00;;;22.70;;
7693;SDS011;3889;48.162;11.510;2023-03-01T04:15:26;25.33;;;23.00;;
7693;SDS011;3889;48.162;11.510;2023-03-01T04:17:56;27.13;;;24.52;;
7693;SDS011;3889;48.162;11.510;2023-03-01T04:20:25;26.52;;;24.13;;
7693;SDS011;3889;48.162;11.510;2023-03-01T04:22:56;26.10;;;23.70;;
7693;SDS011;3889;48.162;11.510;2023-03-01T04:25:26;26.48;;;23.88;;
7693;SDS011;3889;48.162;11.510;2023-03-01T04:27:54;26.50;;;24.20;;
7693;SDS011;3889;48.162;11.510;2023-03-01T04:30:21;26.90;;;24.50;;
7693;SDS011;3889;48.162;11.510;2023-03-01T04:32:51;25.77;;;23.38;;
7693;SDS011;3889;48.162;11.510;2023-03-01T04:35:20;26.50;;;24.10;;
7693;SDS011;3889;48.162;11.510;2023-03-01T04:37:49;25.65;;;23.35;;
7693;SDS011;3889;48.162;11.510;2023-03-01T04:40:17;25.92;;;23.60;;
7693;SDS011;3889;48.162;11.510;2023-03-01T04:42:44;25.55;;;23.13;;
7693;SDS011;3889;48.162;11.510;2023-03-01T04:45:13;26.08;;;23.77;;
7693;SDS011;3889;48.162;11.510;2023-03-01T04:47:42;27.00;;;24.50;;
7693;SDS011;3889;48.162;11.510;2023-03-01T04:50:13;25.35;;;22.98;;
7693;SDS011;3889;48.162;11.510;2023-03-01T04:52:43;26.48;;;24.08;;
7693;SDS011;3889;48.162;11.510;2023-03-01T04:55:12;25.75;;;23.45;;
7693;SDS011;3889;48.162;11.510;2023-03-01T04:57:40;25.83;;;23.53;;
7693;SDS011;3889;48.162;11.510;2023-03-01T05:00:10;26.30;;;23.90;;
7693;SDS011;3889;48.162;11.510;2023-03-01T05:02:47;26.35;;;23.95;;
7693;SDS011;3889;48.162;11.510;2023-03-01T05:05:20;26.17;;;23.77;;
7693;SDS011;3889;48.162;11.510;2023-03-01T05:07:53;26.17;;;23.88;;
7693;SDS011;3889;48.162;11.510;2023-03-01T05:10:22;26.73;;;24.23;;
7693;SDS011;3889;48.162;11.510;2023-03-01T05:12:51;26.48;;;24.08;;
7693;SDS011;3889;48.162;11.510;2023-03-01T05:15:19;27.48;;;25.05;;
7693;SDS011;3889;48.162;11.510;2023-03-01T05:17:52;26.42;;;24.02;;
7693;SDS011;3889;48.162;11.510;2023-03-01T05:20:20;26.87;;;24.37;;
7693;SDS011;3889;48.162;11.510;2023-03-01T05:22:50;27.48;;;24.88;;
7693;SDS011;3889;48.162;11.510;2023-03-01T05:25:19;27.85;;;25.25;;
7693;SDS011;3889;48.162;11.510;2023-03-01T05:27:48;26.63;;;24.13;;
7693;SDS011;3889;48.162;11.510;2023-03-01T05:30:16;28.05;;;25.45;;
7693;SDS011;3889;48.162;11.510;2023-03-01T05:32:45;26.83;;;24.42;;
7693;SDS011;3889;48.162;11.510;2023-03-01T05:35:15;27.23;;;24.73;;
7693;SDS011;3889;48.162;11.510;2023-03-01T05:37:45;27.20;;;24.70;;
7693;SDS011;3889;48.162;11.510;2023-03-01T05:40:15;27.35;;;24.75;;
7693;SDS011;3889;48.162;11.510;2023-03-01T05:42:46;27.58;;;25.08;;
7693;SDS011;3889;48.162;11.510;2023-03-01T05:45:16;27.70;;;25.08;;
7693;SDS011;3889;48.162;11.510;2023-03-01T05:47:45;27.83;;;25.30;;
7693;SDS011;3889;48.162;11.510;2023-03-01T05:50:15;27.83;;;25.23;;
7693;SDS011;3889;48.162;11.510;2023-03-01T05:52:46;28.30;;;25.52;;
7693;SDS011;3889;48.162;11.510;2023-03-01T05:55:15;27.33;;;24.83;;
7693;SDS011;3889;48.162;11.510;2023-03-01T05:57:44;27.63;;;25.05;;
7693;SDS011;3889;48.162;11.510;2023-03-01T06:00:14;27.67;;;25.10;;
7693;SDS011;3889;48.162;11.510;2023-03-01T06:02:43;26.87;;;24.47;;
7693;SDS011;3889;48.162;11.510;2023-03-01T06:05:12;27.38;;;24.77;;
7693;SDS011;3889;48.162;11.510;2023-03-01T06:07:40;27.48;;;24.80;;
7693;SDS011;3889;48.162;11.510;2023-03-01T06:10:09;28.83;;;26.23;;
7693;SDS011;3889;48.162;11.510;2023-03-01T06:12:39;27.77;;;25.15;;
7693;SDS011;3889;48.162;11.510;2023-03-01T06:15:10;27.95;;;25.33;;
7693;SDS011;3889;48.162;11.510;2023-03-01T06:17:40;28.25;;;25.75;;
7693;SDS011;3889;48.162;11.510;2023-03-01T06:20:10;27.85;;;25.20;;
7693;SDS011;3889;48.162;11.510;2023-03-01T06:22:40;27.75;;;25.25;;
7693;SDS011;3889;48.162;11.510;2023-03-01T06:25:08;28.75;;;26.05;;
7693;SDS011;3889;48.162;11.510;2023-03-01T06:27:38;26.90;;;24.40;;
7693;SDS011;3889;48.162;11.510;2023-03-01T06:30:07;27.88;;;25.20;;
7693;SDS011;3889;48.162;11.510;2023-03-01T06:32:38;28.25;;;25.65;;
7693;SDS011;3889;48.162;11.510;2023-03-01T06:35:08;28.23;;;25.53;;
7693;SDS011;3889;48.162;11.510;2023-03-01T06:37:37;28.00;;;25.30;;
7693;SDS011;3889;48.162;11.510;2023-03-01T06:40:06;27.55;;;24.98;;
7693;SDS011;3889;48.162;11.510;2023-03-01T06:42:37;27.05;;;24.45;;
7693;SDS011;3889;48.162;11.510;2023-03-01T06:45:06;27.48;;;25.00;;
7693;SDS011;3889;48.162;11.510;2023-03-01T06:47:37;27.50;;;24.92;;
7693;SDS011;3889;48.162;11.510;2023-03-01T06:50:05;28.10;;;25.38;;
7693;SDS011;3889;48.162;11.510;2023-03-01T06:52:34;28.30;;;25.60;;
7693;SDS011;3889;48.162;11.510;2023-03-01T06:55:02;28.77;;;25.90;;
7693;SDS011;3889;48.162;11.510;2023-03-01T06:57:30;28.05;;;25.35;;
7693;SDS011;3889;48.162;11.510;2023-03-01T06:59:58;28.65;;;25.90;;
7693;SDS011;3889;48.162;11.510;2023-03-01T07:02:26;30.83;;;27.83;;
7693;SDS011;3889;48.162;11.510;2023-03-01T07:04:55;28.75;;;26.13;;
7693;SDS011;3889;48.162;11.510;2023-03-01T07:07:23;28.70;;;26.00;;
7693;SDS011;3889;48.162;11.510;2023-03-01T07:09:50;28.50;;;25.80;;
7693;SDS011;3889;48.162;11.510;2023-03-01T07:12:19;28.60;;;25.65;;
7693;SDS011;3889;48.162;11.510;2023-03-01T07:14:47;28.10;;;25.35;;
7693;SDS011;3889;48.162;11.510;2023-03-01T07:17:14;28.25;;;25.55;;
7693;SDS011;3889;48.162;11.510;2023-03-01T07:19:42;28.95;;;26.02;;
7693;SDS011;3889;48.162;11.510;2023-03-01T07:22:12;27.90;;;25.20;;
7693;SDS011;3889;48.162;11.510;2023-03-01T07:24:40;28.13;;;25.48;;
7693;SDS011;3889;48.162;11.510;2023-03-01T07:27:08;28.13;;;25.38;;
7693;SDS011;3889;48.162;11.510;2023-03-01T07:29:36;27.77;;;25.17;;
7693;SDS011;3889;48.162;11.510;2023-03-01T07:32:04;28.50;;;25.70;;
7693;SDS011;3889;48.162;11.510;2023-03-01T07:34:33;27.98;;;25.00;;
7693;SDS011;3889;48.162;11.510;2023-03-01T07:37:01;29.17;;;26.17;;
7693;SDS011;3889;48.162;11.510;2023-03-01T07:39:30;28.27;;;25.48;;
7693;SDS011;3889;48.162;11.510;2023-03-01T07:41:58;28.92;;;25.95;;
7693;SDS011;3889;48.162;11.510;2023-03-01T07:44:26;28.90;;;26.17;;
7693;SDS011;3889;48.162;11.510;2023-03-01T07:46:54;27.67;;;25.10;;
7693;SDS011;3889;48.162;11.510;2023-03-01T07:49:24;28.87;;;25.93;;
7693;SDS011;3889;48.162;11.510;2023-03-01T07:51:53;27.93;;;25.23;;
7693;SDS011;3889;48.162;11.510;2023-03-01T07:54:21;28.05;;;25.35;;
7693;SDS011;3889;48.162;11.510;2023-03-01T07:56:50;29.30;;;25.95;;
7693;SDS011;3889;48.162;11.510;2023-03-01T07:59:18;28.73;;;26.03;;
7693;SDS011;3889;48.162;11.510;2023-03-01T08:01:46;27.90;;;25.10;;
7693;SDS011;3889;48.162;11.510;2023-03-01T08:04:14;27.63;;;25.03;;
7693;SDS011;3889;48.162;11.510;2023-03-01T08:06:42;28.20;;;25.60;;
7693;SDS011;3889;48.162;11.510;2023-03-01T08:09:10;27.88;;;25.27;;
7693;SDS011;3889;48.162;11.510;2023-03-01T08:11:37;28.25;;;25.42;;
7693;SDS011;3889;48.162;11.510;2023-03-01T08:14:07;29.13;;;26.20;;
7693;SDS011;3889;48.162;11.510;2023-03-01T08:16:34;29.30;;;26.42;;
7693;SDS011;3889;48.162;11.510;2023-03-01T08:19:05;28.65;;;25.95;;
7693;SDS011;3889;48.162;11.510;2023-03-01T08:21:34;28.25;;;25.52;;
7693;SDS011;3889;48.162;11.510;2023-03-01T08:24:02;28.27;;;25.48;;
7693;SDS011;3889;48.162;11.510;2023-03-01T08:26:32;28.08;;;25.38;;
7693;SDS011;3889;48.162;11.510;2023-03-01T08:29:00;29.20;;;25.55;;
7693;SDS011;3889;48.162;11.510;2023-03-01T08:31:31;28.52;;;25.83;;
7693;SDS011;3889;48.162;11.510;2023-03-01T08:34:04;27.60;;;24.93;;
7693;SDS011;3889;48.162;11.510;2023-03-01T08:36:35;28.33;;;25.63;;
7693;SDS011;3889;48.162;11.510;2023-03-01T08:39:05;28.33;;;25.63;;
7693;SDS011;3889;48.162;11.510;2023-03-01T08:41:33;28.08;;;25.48;;
7693;SDS011;3889;48.162;11.510;2023-03-01T08:44:01;28.58;;;25.80;;
7693;SDS011;3889;48.162;11.510;2023-03-01T08:46:32;27.60;;;24.67;;
7693;SDS011;3889;48.162;11.510;2023-03-01T08:49:03;27.60;;;24.90;;
7693;SDS011;3889;48.162;11.510;2023-03-01T08:51:31;28.85;;;26.05;;
7693;SDS011;3889;48.162;11.510;2023-03-01T08:54:02;30.75;;;25.67;;
7693;SDS011;3889;48.162;11.510;2023-03-01T08:56:30;28.42;;;25.70;;
7693;SDS011;3889;48.162;11.510;2023-03-01T08:58:58;27.42;;;24.73;;
7693;SDS011;3889;48.162;11.510;2023-03-01T09:01:26;27.45;;;24.85;;
7693;SDS011;3889;48.162;11.510;2023-03-01T09:03:55;28.92;;;26.15;;
7693;SDS011;3889;48.162;11.510;2023-03-01T09:06:23;28.48;;;25.67;;
7693;SDS011;3889;48.162;11.510;2023-03-01T09:08:51;28.48;;;25.70;;
7693;SDS011;3889;48.162;11.510;2023-03-01T09:11:20;28.38;;;25.73;;
7693;SDS011;3889;48.162;11.510;2023-03-01T09:13:48;28.73;;;25.95;;
7693;SDS011;3889;48.162;11.510;2023-03-01T09:16:17;28.87;;;26.07;;
7693;SDS011;3889;48.162;11.510;2023-03-01T09:18:48;28.35;;;25.65;;
7693;SDS011;3889;48.162;11.510;2023-03-01T09:21:18;28.50;;;25.70;;
7693;SDS011;3889;48.162;11.510;2023-03-01T09:24:05;28.35;;;25.58;;
7693;SDS011;3889;48.162;11.510;2023-03-01T09:26:33;27.67;;;25.08;;
7693;SDS011;3889;48.162;11.510;2023-03-01T09:29:01;27.33;;;24.80;;
7693;SDS011;3889;48.162;11.510;2023-03-01T09:31:29;28.33;;;25.63;;
7693;SDS011;3889;48.162;11.510;2023-03-01T09:33:57;27.75;;;25.08;;
7693;SDS011;3889;48.162;11.510;2023-03-01T09:36:26;28.80;;;26.00;;
7693;SDS011;3889;48.162;11.510;2023-03-01T09:38:55;29.13;;;26.42;;
7693;SDS011;3889;48.162;11.510;2023-03-01T09:41:34;28.15;;;25.42;;
7693;SDS011;3889;48.162;11.510;2023-03-01T09:44:12;29.30;;;26.50;;
7693;SDS011;3889;48.162;11.510;2023-03-01T09:46:45;28.90;;;26.02;;
7693;SDS011;3889;48.162;11.510;2023-03-01T09:49:14;28.42;;;25.63;;
7693;SDS011;3889;48.162;11.510;2023-03-01T09:51:50;29.13;;;26.15;;
7693;SDS011;3889;48.162;11.510;2023-03-01T09:54:23;30.05;;;27.20;;
7693;SDS011;3889;48.162;11.510;2023-03-01T09:56:57;28.63;;;25.80;;
7693;SDS011;3889;48.162;11.510;2023-03-01T09:59:33;27.73;;;25.05;;
7693;SDS011;3889;48.162;11.510;2023-03-01T10:02:18;29.27;;;26.27;;
7693;SDS011;3889;48.162;11.510;2023-03-01T10:04:51;29.08;;;26.13;;
7693;SDS011;3889;48.162;11.510;2023-03-01T10:07:26;29.10;;;26.30;;
7693;SDS011;3889;48.162;11.510;2023-03-01T10:09:59;29.15;;;26.13;;
7693;SDS011;3889;48.162;11.510;2023-03-01T10:12:32;28.10;;;25.45;;
7693;SDS011;3889;48.162;11.510;2023-03-01T10:15:04;28.35;;;25.55;;
7693;SDS011;3889;48.162;11.510;2023-03-01T10:17:37;27.90;;;25.10;;
7693;SDS011;3889;48.162;11.510;2023-03-01T10:20:14;27.02;;;24.33;;
7693;SDS011;3889;48.162;11.510;2023-03-01T10:22:46;28.17;;;25.45;;
7693;SDS011;3889;48.162;11.510;2023-03-01T10:25:20;27.60;;;25.00;;
7693;SDS011;3889;48.162;11.510;2023-03-01T10:28:01;28.60;;;25.90;;
7693;SDS011;3889;48.162;11.510;2023-03-01T10:30:34;28.63;;;25.88;;
7693;SDS011;3889;48.162;11.510;2023-03-01T10:33:07;29.35;;;26.52;;
7693;SDS011;3889;48.162;11.510;2023-03-01T10:35:46;27.63;;;25.02;;
7693;SDS011;3889;48.162;11.510;2023-03-01T10:38:16;28.80;;;26.08;;
7693;SDS011;3889;48.162;11.510;2023-03-01T10:40:50;28.92;;;26.25;;
7693;SDS011;3889;48.162;11.510;2023-03-01T10:43:20;27.95;;;25.33;;
7693;SDS011;3889;48.162;11.510;2023-03-01T10:45:48;28.40;;;25.60;;
7693;SDS011;3889;48.162;11.510;2023-03-01T10:48:17;27.73;;;25.02;;
7693;SDS011;3889;48.162;11.510;2023-03-01T10:50:50;29.52;;;26.73;;
7693;SDS011;3889;48.162;11.510;2023-03-01T10:53:27;28.70;;;26.00;;
7693;SDS011;3889;48.162;11.510;2023-03-01T10:55:57;27.83;;;25.15;;
7693;SDS011;3889;48.162;11.510;2023-03-01T10:58:27;29.10;;;26.35;;
7693;SDS011;3889;48.162;11.510;2023-03-01T11:00:57;28.20;;;25.50;;
7693;SDS011;3889;48.162;11.510;2023-03-01T11:03:26;29.33;;;26.52;;
7693;SDS011;3889;48.162;11.510;2023-03-01T11:06:01;28.85;;;26.05;;
7693;SDS011;3889;48.162;11.510;2023-03-01T11:08:34;27.65;;;25.00;;
7693;SDS011;3889;48.162;11.510;2023-03-01T11:11:05;29.00;;;26.33;;
7693;SDS011;3889;48.162;11.510;2023-03-01T11:13:46;27.83;;;25.27;;
7693;SDS011;3889;48.162;11.510;2023-03-01T11:16:22;28.90;;;26.20;;
7693;SDS011;3889;48.162;11.510;2023-03-01T11:18:56;28.20;;;25.60;;
7693;SDS011;3889;48.162;11.510;2023-03-01T11:21:25;29.90;;;26.98;;
7693;SDS011;3889;48.162;11.510;2023-03-01T11:23:57;29.77;;;27.07;;
7693;SDS011;3889;48.162;11.510;2023-03-01T11:26:28;29.37;;;26.53;;
7693;SDS011;3889;48.162;11.510;2023-03-01T11:28:59;29.88;;;27.17;;
7693;SDS011;3889;48.162;11.510;2023-03-01T11:31:31;28.77;;;26.08;;
7693;SDS011;3889;48.162;11.510;2023-03-01T11:34:02;29.00;;;26.20;;
7693;SDS011;3889;48.162;11.510;2023-03-01T11:36:35;29.63;;;26.85;;
7693;SDS011;3889;48.162;11.510;2023-03-01T11:39:17;28.42;;;25.80;;
7693;SDS011;3889;48.162;11.510;2023-03-01T11:42:04;29.13;;;26.48;;
7693;SDS011;3889;48.162;11.510;2023-03-01T11:44:44;28.60;;;26.00;;
7693;SDS011;3889;48.162;11.510;2023-03-01T11:47:18;28.15;;;25.45;;
7693;SDS011;3889;48.162;11.510;2023-03-01T11:50:07;27.65;;;25.05;;
7693;SDS011;3889;48.162;11.510;2023-03-01T11:52:58;28.13;;;25.48;;
7693;SDS011;3889;48.162;11.510;2023-03-01T11:55:51;28.33;;;25.67;;
7693;SDS011;3889;48.162;11.510;2023-03-01T12:01:36;28.42;;;25.73;;
7693;SDS011;3889;48.162;11.510;2023-03-01T12:04:20;28.52;;;25.90;;
7693;SDS011;3889;48.162;11.510;2023-03-01T12:07:03;27.95;;;25.33;;
7693;SDS011;3889;48.162;11.510;2023-03-01T12:09:44;27.77;;;25.02;;
7693;SDS011;3889;48.162;11.510;2023-03-01T12:12:27;27.55;;;24.85;;
7693;SDS011;3889;48.162;11.510;2023-03-01T12:15:08;27.58;;;25.05;;
7693;SDS011;3889;48.162;11.510;2023-03-01T12:17:57;28.58;;;25.85;;
7693;SDS011;3889;48.162;11.510;2023-03-01T12:20:40;28.85;;;26.08;;
7693;SDS011;3889;48.162;11.510;2023-03-01T12:23:24;28.20;;;25.52;;
7693;SDS011;3889;48.162;11.510;2023-03-01T12:26:04;28.58;;;25.85;;
7693;SDS011;3889;48.162;11.510;2023-03-01T12:28:46;28.92;;;26.25;;
7693;SDS011;3889;48.162;11.510;2023-03-01T12:31:27;29.45;;;26.67;;
7693;SDS011;3889;48.162;11.510;2023-03-01T12:34:15;29.45;;;26.75;;
7693;SDS011;3889;48.162;11.510;2023-03-01T12:36:58;29.33;;;26.60;;
7693;SDS011;3889;48.162;11.510;2023-03-01T12:39:49;30.63;;;27.45;;
7693;SDS011;3889;48.162;11.510;2023-03-01T12:42:27;29.45;;;26.65;;
7693;SDS011;3889;48.162;11.510;2023-03-01T12:45:05;29.42;;;26.73;;
7693;SDS011;3889;48.162;11.510;2023-03-01T12:47:54;29.42;;;26.63;;
7693;SDS011;3889;48.162;11.510;2023-03-01T12:50:36;28.42;;;25.73;;
7693;SDS011;3889;48.162;11.510;2023-03-01T12:53:13;28.27;;;25.48;;
7693;SDS011;3889;48.162;11.510;2023-03-01T12:55:49;28.98;;;26.08;;
7693;SDS011;3889;48.162;11.510;2023-03-01T12:58:21;29.35;;;26.25;;
7693;SDS011;3889;48.162;11.510;2023-03-01T13:01:11;28.92;;;26.13;;
7693;SDS011;3889;48.162;11.510;2023-03-01T13:03:57;27.52;;;24.80;;
7693;SDS011;3889;48.162;11.510;2023-03-01T13:06:39;27.67;;;25.00;;
7693;SDS011;3889;48.162;11.510;2023-03-01T13:09:14;27.67;;;25.08;;
7693;SDS011;3889;48.162;11.510;2023-03-01T13:11:52;28.10;;;25.38;;
7693;SDS011;3889;48.162;11.510;2023-03-01T13:14:35;28.40;;;25.70;;
7693;SDS011;3889;48.162;11.510;2023-03-01T13:17:20;27.98;;;25.38;;
7693;SDS011;3889;48.162;11.510;2023-03-01T13:19:57;29.40;;;26.65;;
7693;SDS011;3889;48.162;11.510;2023-03-01T13:22:27;28.60;;;25.73;;
7693;SDS011;3889;48.162;11.510;2023-03-01T13:25:02;28.38;;;25.67;;
7693;SDS011;3889;48.162;11.510;2023-03-01T13:27:40;29.45;;;26.65;;
7693;SDS011;3889;48.162;11.510;2023-03-01T13:39:26;29.15;;;26.40;;
7693;SDS011;3889;48.162;11.510;2023-03-01T13:41:58;28.30;;;25.40;;
7693;SDS011;3889;48.162;11.510;2023-03-01T13:44:28;28.80;;;26.00;;
7693;SDS011;3889;48.162;11.510;2023-03-01T13:47:03;28.73;;;25.97;;
7693;SDS011;3889;48.162;11.510;2023-03-01T13:49:43;28.02;;;25.23;;
7693;SDS011;3889;48.162;11.510;2023-03-01T13:52:32;27.20;;;24.60;;
7693;SDS011;3889;48.162;11.510;2023-03-01T13:55:06;27.83;;;25.15;;
7693;SDS011;3889;48.162;11.510;2023-03-01T13:57:44;28.02;;;25.23;;
7693;SDS011;3889;48.162;11.510;2023-03-01T14:00:26;28.70;;;25.90;;
7693;SDS011;3889;48.162;11.510;2023-03-01T14:02:59;28.52;;;25.65;;
7693;SDS011;3889;48.162;11.510;2023-03-01T14:05:34;28.38;;;25.67;;
7693;SDS011;3889;48.162;11.510;2023-03-01T14:08:02;28.50;;;25.50;;
7693;SDS011;3889;48.162;11.510;2023-03-01T14:10:32;27.60;;;25.00;;
7693;SDS011;3889;48.162;11.510;2023-03-01T14:13:12;27.23;;;24.63;;
7693;SDS011;3889;48.162;11.510;2023-03-01T14:15:57;27.35;;;24.70;;
7693;SDS011;3889;48.162;11.510;2023-03-01T14:18:42;26.58;;;23.98;;
7693;SDS011;3889;48.162;11.510;2023-03-01T14:21:19;27.60;;;24.98;;
7693;SDS011;3889;48.162;11.510;2023-03-01T14:23:48;27.17;;;24.52;;
7693;SDS011;3889;48.162;11.510;2023-03-01T14:26:20;27.33;;;24.63;;
7693;SDS011;3889;48.162;11.510;2023-03-01T14:28:49;27.23;;;24.52;;
7693;SDS011;3889;48.162;11.510;2023-03-01T14:31:36;26.75;;;24.15;;
7693;SDS011;3889;48.162;11.510;2023-03-01T14:34:18;27.45;;;24.73;;
7693;SDS011;3889;48.162;11.510;2023-03-01T14:36:53;27.83;;;25.13;;
7693;SDS011;3889;48.162;11.510;2023-03-01T14:39:24;26.23;;;23.63;;
7693;SDS011;3889;48.162;11.510;2023-03-01T14:41:52;25.83;;;23.43;;
7693;SDS011;3889;48.162;11.510;2023-03-01T14:44:23;25.88;;;23.33;;
7693;SDS011;3889;48.162;11.510;2023-03-01T14:46:52;26.05;;;23.48;;
7693;SDS011;3889;48.162;11.510;2023-03-01T14:49:24;27.13;;;24.52;;
7693;SDS011;3889;48.162;11.510;2023-03-01T14:51:59;25.42;;;23.02;;
7693;SDS011;3889;48.162;11.510;2023-03-01T14:54:32;26.67;;;23.90;;
7693;SDS011;3889;48.162;11.510;2023-03-01T14:57:04;25.20;;;22.80;;
7693;SDS011;3889;48.162;11.510;2023-03-01T14:59:33;25.33;;;22.92;;
7693;SDS011;3889;48.162;11.510;2023-03-01T15:02:01;24.65;;;22.25;;
7693;SDS011;3889;48.162;11.510;2023-03-01T15:04:29;23.92;;;21.33;;
7693;SDS011;3889;48.162;11.510;2023-03-01T15:07:01;25.20;;;22.70;;
7693;SDS011;3889;48.162;11.510;2023-03-01T15:09:31;24.67;;;22.27;;
7693;SDS011;3889;48.162;11.510;2023-03-01T15:18:04;24.05;;;21.63;;
7693;SDS011;3889;48.162;11.510;2023-03-01T15:20:40;22.92;;;20.65;;